Time;durP1;ratioP1;P1;durP2;ratioP2;P2;SDS_P1;SDS_P2;PMS_P1;PMS_P2;Temp;Humidity;BMP_temperature;BMP_pressure;BME280_temperature;BME280_humidity;BME280_pressure;Samples;Min_cycle;Max_cycle;Signal;HPM_P1;HPM_P2
2024/02/23 00:01:50;;;;;;;4.95;2.92;;;;;;;;;;4996694;28;20124;-92
2024/02/23 00:04:18;;;;;;;6.55;3.35;;;;;;;;;;4997447;28;20022;-91
2024/02/23 00:06:44;;;;;;;6.65;3.50;;;;;;;;;;4996582;28;20121;-90
2024/02/23 00:09:11;;;;;;;11.73;5.53;;;;;;;;;;4997352;28;20034;-92
2024/02/23 00:11:41;;;;;;;9.63;5.15;;;;;;;;;;4997159;28;20022;-92
2024/02/23 00:14:08;;;;;;;16.60;8.50;;;;;;;;;;5000313;28;20026;-90
2024/02/23 00:16:41;;;;;;;9.98;5.63;;;;;;;;;;5015249;28;20015;-91
2024/02/23 00:19:10;;;;;;;17.07;8.77;;;;;;;;;;5004330;28;20090;-92
2024/02/23 00:21:37;;;;;;;14.05;7.90;;;;;;;;;;4997947;28;20376;-93
2024/02/23 00:24:03;;;;;;;12.77;7.10;;;;;;;;;;4996037;28;20130;-93
2024/02/23 00:26:29;;;;;;;15.88;8.02;;;;;;;;;;4996234;28;20084;-93
2024/02/23 00:28:56;;;;;;;16.48;8.55;;;;;;;;;;4997150;28;20022;-93
2024/02/23 00:31:22;;;;;;;17.40;9.68;;;;;;;;;;4996190;28;20068;-93
2024/02/23 00:33:48;;;;;;;17.67;9.23;;;;;;;;;;4996007;28;20077;-93
2024/02/23 00:36:14;;;;;;;11.50;6.13;;;;;;;;;;4995976;28;20030;-92
2024/02/23 00:38:40;;;;;;;13.88;6.75;;;;;;;;;;4995801;28;20022;-91
2024/02/23 00:41:06;;;;;;;9.65;5.47;;;;;;;;;;4995916;28;20034;-91
2024/02/23 00:43:39;;;;;;;8.93;4.47;;;;;;;;;;4995995;28;20026;-92
2024/02/23 00:46:05;;;;;;;10.73;5.17;;;;;;;;;;4995757;28;20039;-91
2024/02/23 00:48:34;;;;;;;9.00;5.20;;;;;;;;;;4995405;28;20276;-93
2024/02/23 00:51:04;;;;;;;12.07;7.50;;;;;;;;;;4995874;28;20022;-93
2024/02/23 00:53:33;;;;;;;17.55;10.02;;;;;;;;;;4995790;28;20129;-93
2024/02/23 00:55:59;;;;;;;11.15;7.60;;;;;;;;;;4995578;28;20045;-93
2024/02/23 00:58:26;;;;;;;15.40;9.85;;;;;;;;;;4995416;28;20034;-92
2024/02/23 01:00:52;;;;;;;21.20;12.85;;;;;;;;;;4995291;28;20045;-91
2024/02/23 01:03:18;;;;;;;18.20;12.43;;;;;;;;;;4995339;28;20026;-92
2024/02/23 01:05:45;;;;;;;12.88;8.32;;;;;;;;;;4995509;28;20062;-93
2024/02/23 01:08:20;;;;;;;14.25;8.85;;;;;;;;;;4997906;28;20054;-92
2024/02/23 01:11:02;;;;;;;11.88;8.88;;;;;;;;;;4998115;28;20050;-93
2024/02/23 01:13:28;;;;;;;16.23;10.30;;;;;;;;;;4996417;28;20066;-93
2024/02/23 01:15:54;;;;;;;13.15;8.73;;;;;;;;;;4995521;28;20165;-92
2024/02/23 01:18:21;;;;;;;13.13;8.80;;;;;;;;;;4996622;28;20018;-93
2024/02/23 01:20:47;;;;;;;15.27;9.95;;;;;;;;;;4999819;28;20035;-91
2024/02/23 01:23:13;;;;;;;13.20;9.20;;;;;;;;;;5015643;28;20030;-92
2024/02/23 01:25:40;;;;;;;11.68;7.25;;;;;;;;;;5001492;28;20041;-92
2024/02/23 01:28:06;;;;;;;12.40;7.80;;;;;;;;;;4994922;28;20046;-93
2024/02/23 01:30:33;;;;;;;13.15;8.10;;;;;;;;;;4995045;28;20077;-91
2024/02/23 01:33:00;;;;;;;14.48;7.80;;;;;;;;;;4995828;28;20026;-92
2024/02/23 01:35:27;;;;;;;17.48;10.32;;;;;;;;;;4996103;28;20094;-92
2024/02/23 01:37:54;;;;;;;18.95;10.98;;;;;;;;;;4996856;28;20041;-93
2024/02/23 01:40:20;;;;;;;14.52;9.60;;;;;;;;;;4994971;28;20072;-92
2024/02/23 01:42:47;;;;;;;13.10;8.70;;;;;;;;;;4994930;28;20498;-93
2024/02/23 01:45:13;;;;;;;11.20;7.68;;;;;;;;;;4994820;28;20023;-93
2024/02/23 01:47:39;;;;;;;10.77;6.88;;;;;;;;;;4999149;28;20011;-91
2024/02/23 01:50:08;;;;;;;11.52;7.35;;;;;;;;;;5004831;28;20120;-93
2024/02/23 01:52:35;;;;;;;10.85;7.25;;;;;;;;;;4996704;28;20022;-92
2024/02/23 01:55:01;;;;;;;10.63;7.53;;;;;;;;;;4996213;28;20067;-94
2024/02/23 01:57:27;;;;;;;10.80;7.10;;;;;;;;;;4994838;28;20034;-94
2024/02/23 01:59:53;;;;;;;10.80;6.93;;;;;;;;;;4994322;28;20487;-94
2024/02/23 02:02:20;;;;;;;13.00;8.30;;;;;;;;;;4994368;28;20030;-92
2024/02/23 02:04:46;;;;;;;8.75;5.80;;;;;;;;;;4994520;28;20026;-92
2024/02/23 02:07:12;;;;;;;7.70;5.28;;;;;;;;;;4995111;28;20101;-92
2024/02/23 02:09:38;;;;;;;6.93;4.38;;;;;;;;;;5001051;28;20061;-91
2024/02/23 02:12:04;;;;;;;8.65;5.57;;;;;;;;;;4997294;28;20026;-92
2024/02/23 02:14:33;;;;;;;12.48;8.00;;;;;;;;;;4994335;28;20030;-92
2024/02/23 02:16:59;;;;;;;13.18;8.45;;;;;;;;;;4994401;28;20030;-92
2024/02/23 02:19:25;;;;;;;10.88;6.78;;;;;;;;;;4994296;28;20503;-92
2024/02/23 02:21:51;;;;;;;9.63;5.68;;;;;;;;;;4994174;28;20027;-91
2024/02/23 02:24:17;;;;;;;8.88;5.32;;;;;;;;;;4994587;28;20475;-92
2024/02/23 02:26:45;;;;;;;7.55;4.88;;;;;;;;;;4994149;28;20029;-92
2024/02/23 02:29:11;;;;;;;11.35;6.20;;;;;;;;;;4994248;28;20026;-92
2024/02/23 02:31:37;;;;;;;8.95;6.18;;;;;;;;;;4994111;28;20068;-92
2024/02/23 02:34:04;;;;;;;6.13;4.72;;;;;;;;;;4994311;28;20114;-91
2024/02/23 02:36:30;;;;;;;7.00;4.05;;;;;;;;;;4994626;28;20032;-91
2024/02/23 02:38:57;;;;;;;5.22;3.22;;;;;;;;;;4994260;28;20042;-91
2024/02/23 02:41:24;;;;;;;4.38;2.97;;;;;;;;;;4994148;28;20476;-91
2024/02/23 02:43:50;;;;;;;5.13;3.53;;;;;;;;;;4994186;28;20040;-92
2024/02/23 02:46:16;;;;;;;6.55;4.05;;;;;;;;;;4994739;28;20137;-92
2024/02/23 02:48:42;;;;;;;7.10;4.93;;;;;;;;;;4994279;28;20030;-94
2024/02/23 02:51:10;;;;;;;6.78;5.43;;;;;;;;;;5001134;28;20035;-92
2024/02/23 02:53:36;;;;;;;7.97;5.57;;;;;;;;;;5010807;28;20030;-91
2024/02/23 02:56:06;;;;;;;7.80;6.07;;;;;;;;;;5000026;28;20403;-93
2024/02/23 02:58:32;;;;;;;9.02;6.20;;;;;;;;;;4993670;28;20042;-92
2024/02/23 03:00:58;;;;;;;7.93;5.18;;;;;;;;;;4982324;28;20074;-91
2024/02/23 03:03:24;;;;;;;6.57;4.53;;;;;;;;;;4974365;28;20019;-91
2024/02/23 03:05:50;;;;;;;5.70;4.32;;;;;;;;;;4974668;28;20026;-91
2024/02/23 03:08:17;;;;;;;6.57;4.32;;;;;;;;;;4974326;28;20483;-91
2024/02/23 03:10:43;;;;;;;6.78;4.70;;;;;;;;;;4981850;28;20022;-92
2024/02/23 03:13:09;;;;;;;6.63;4.65;;;;;;;;;;4993708;28;20061;-91
2024/02/23 03:15:35;;;;;;;5.30;3.75;;;;;;;;;;4993698;28;20022;-91
2024/02/23 03:18:02;;;;;;;7.13;3.80;;;;;;;;;;4993494;28;20019;-91
2024/02/23 03:20:28;;;;;;;5.53;4.10;;;;;;;;;;4993395;28;20046;-91
2024/02/23 03:22:54;;;;;;;5.72;4.10;;;;;;;;;;4993397;28;20026;-92
2024/02/23 03:25:20;;;;;;;6.32;4.57;;;;;;;;;;4993721;28;20026;-91
2024/02/23 03:27:47;;;;;;;7.53;4.97;;;;;;;;;;4995309;28;20022;-91
2024/02/23 03:30:13;;;;;;;9.40;5.75;;;;;;;;;;4997010;28;20121;-90
2024/02/23 03:32:39;;;;;;;13.07;6.70;;;;;;;;;;4997180;28;20098;-91
2024/02/23 03:35:06;;;;;;;10.65;6.07;;;;;;;;;;4997003;28;20033;-91
2024/02/23 03:37:35;;;;;;;11.18;5.85;;;;;;;;;;4996819;28;20030;-92
2024/02/23 03:40:04;;;;;;;6.85;4.90;;;;;;;;;;4997031;28;20129;-90
2024/02/23 03:42:30;;;;;;;7.25;4.75;;;;;;;;;;4997225;28;20029;-91
2024/02/23 03:44:56;;;;;;;7.13;4.43;;;;;;;;;;4997090;28;20482;-91
2024/02/23 03:47:23;;;;;;;9.00;5.90;;;;;;;;;;4996581;28;20030;-92
2024/02/23 03:49:49;;;;;;;10.57;5.47;;;;;;;;;;4996991;28;20038;-91
2024/02/23 03:52:15;;;;;;;10.15;5.82;;;;;;;;;;4996838;28;20026;-91
2024/02/23 03:54:41;;;;;;;12.07;7.57;;;;;;;;;;5002355;28;20486;-91
2024/02/23 03:57:07;;;;;;;10.35;5.68;;;;;;;;;;4996717;28;20026;-92
2024/02/23 03:59:40;;;;;;;12.25;7.40;;;;;;;;;;4995709;28;20089;-93
2024/02/23 04:02:06;;;;;;;12.13;7.00;;;;;;;;;;4996217;28;20030;-92
2024/02/23 04:04:54;;;;;;;9.95;6.35;;;;;;;;;;4996695;28;20023;-92
2024/02/23 04:07:32;;;;;;;11.32;7.30;;;;;;;;;;4996697;28;20037;-91
2024/02/23 04:09:58;;;;;;;11.65;6.97;;;;;;;;;;4996533;28;20037;-91
2024/02/23 04:12:36;;;;;;;9.90;6.80;;;;;;;;;;4976471;28;20069;-91
2024/02/23 04:15:02;;;;;;;16.83;7.75;;;;;;;;;;4991773;28;20133;-91
2024/02/23 04:17:28;;;;;;;12.48;8.10;;;;;;;;;;4996330;28;20045;-91
2024/02/23 04:19:54;;;;;;;14.15;7.55;;;;;;;;;;4997453;28;20046;-90
2024/02/23 04:22:20;;;;;;;12.73;7.57;;;;;;;;;;5017960;28;20030;-91
2024/02/23 04:24:46;;;;;;;11.93;7.47;;;;;;;;;;5003265;28;20057;-91
2024/02/23 04:27:12;;;;;;;12.13;7.47;;;;;;;;;;5000497;28;20117;-93
2024/02/23 04:29:38;;;;;;;14.02;7.50;;;;;;;;;;4996560;28;20053;-93
2024/02/23 04:32:06;;;;;;;16.27;7.70;;;;;;;;;;4996391;28;20097;-93
2024/02/23 04:34:32;;;;;;;11.27;6.75;;;;;;;;;;4996078;28;20049;-92
2024/02/23 04:36:58;;;;;;;10.48;7.03;;;;;;;;;;4995987;28;20037;-93
2024/02/23 04:39:24;;;;;;;13.23;7.88;;;;;;;;;;4995700;28;20161;-91
2024/02/23 04:41:53;;;;;;;11.60;7.43;;;;;;;;;;4995759;28;20029;-92
2024/02/23 04:44:20;;;;;;;12.52;8.15;;;;;;;;;;4997020;28;20023;-91
2024/02/23 04:46:46;;;;;;;15.15;9.30;;;;;;;;;;4995636;28;20033;-92
2024/02/23 04:49:12;;;;;;;16.48;9.45;;;;;;;;;;4995805;28;20100;-90
2024/02/23 04:51:38;;;;;;;14.50;9.00;;;;;;;;;;4996452;28;20058;-92
2024/02/23 04:54:04;;;;;;;18.27;9.77;;;;;;;;;;4996045;28;20069;-91
2024/02/23 04:56:37;;;;;;;15.93;9.32;;;;;;;;;;5008908;28;20026;-89
2024/02/23 04:59:03;;;;;;;14.07;8.98;;;;;;;;;;4999301;28;20046;-92
2024/02/23 05:01:29;;;;;;;14.55;8.50;;;;;;;;;;4995670;28;20117;-92
2024/02/23 05:03:55;;;;;;;20.83;9.80;;;;;;;;;;5000848;28;20073;-91
2024/02/23 05:06:21;;;;;;;17.23;8.75;;;;;;;;;;5002612;28;20049;-91
2024/02/23 05:08:47;;;;;;;16.48;8.07;;;;;;;;;;5000485;28;20403;-92
2024/02/23 05:11:16;;;;;;;15.57;7.68;;;;;;;;;;4997238;28;20430;-92
2024/02/23 05:13:42;;;;;;;15.45;7.57;;;;;;;;;;4995723;28;20101;-91
2024/02/23 05:16:08;;;;;;;14.98;7.82;;;;;;;;;;4995584;28;20041;-91
2024/02/23 05:18:34;;;;;;;19.75;8.10;;;;;;;;;;4994987;28;20026;-91
2024/02/23 05:21:16;;;;;;;20.23;8.23;;;;;;;;;;5001007;28;20137;-93
2024/02/23 05:23:42;;;;;;;15.40;8.82;;;;;;;;;;4995065;28;20105;-92
2024/02/23 05:26:08;;;;;;;20.67;10.82;;;;;;;;;;4995299;28;20022;-91
2024/02/23 05:28:34;;;;;;;16.20;8.65;;;;;;;;;;4994957;28;20065;-91
2024/02/23 05:31:03;;;;;;;12.60;7.50;;;;;;;;;;4995123;28;20124;-92
2024/02/23 05:33:29;;;;;;;14.95;9.65;;;;;;;;;;4995321;28;20169;-92
2024/02/23 05:35:55;;;;;;;14.88;8.93;;;;;;;;;;5005636;28;20060;-91
2024/02/23 05:38:22;;;;;;;14.80;9.15;;;;;;;;;;4994803;28;20538;-90
2024/02/23 05:40:48;;;;;;;15.98;10.02;;;;;;;;;;4994906;28;20049;-92
2024/02/23 05:43:14;;;;;;;9.13;7.07;;;;;;;;;;4995362;28;20041;-89
2024/02/23 05:45:40;;;;;;;9.73;6.60;;;;;;;;;;4995359;28;20022;-90
2024/02/23 05:48:07;;;;;;;13.70;8.63;;;;;;;;;;4995481;28;20019;-90
2024/02/23 05:50:33;;;;;;;14.82;9.82;;;;;;;;;;5003274;28;20057;-88
2024/02/23 05:52:59;;;;;;;13.07;9.00;;;;;;;;;;5006755;28;20027;-90
2024/02/23 05:55:25;;;;;;;12.00;8.32;;;;;;;;;;4999055;28;20030;-91
2024/02/23 05:57:52;;;;;;;13.63;7.53;;;;;;;;;;4995965;28;20030;-90
2024/02/23 06:00:18;;;;;;;14.38;7.35;;;;;;;;;;4994614;28;20117;-93
2024/02/23 06:02:45;;;;;;;15.20;8.80;;;;;;;;;;4994234;28;20121;-90
2024/02/23 06:05:12;;;;;;;9.30;5.60;;;;;;;;;;4994726;28;20034;-90
2024/02/23 06:07:44;;;;;;;10.63;7.15;;;;;;;;;;4994826;28;20038;-93
2024/02/23 06:10:22;;;;;;;9.88;6.38;;;;;;;;;;5000458;28;20036;-95
2024/02/23 06:12:48;;;;;;;11.98;7.82;;;;;;;;;;4996429;28;20084;-93
2024/02/23 06:15:14;;;;;;;10.50;7.85;;;;;;;;;;4996132;28;20022;-92
2024/02/23 06:17:40;;;;;;;12.40;7.75;;;;;;;;;;4996163;28;20030;-92
2024/02/23 06:20:07;;;;;;;12.73;9.93;;;;;;;;;;4994901;28;20474;-93
2024/02/23 06:22:34;;;;;;;14.95;10.23;;;;;;;;;;4994305;28;20038;-94
2024/02/23 06:25:00;;;;;;;12.50;9.48;;;;;;;;;;4994414;28;20058;-94
2024/02/23 06:27:27;;;;;;;12.15;8.77;;;;;;;;;;4994944;28;20058;-92
2024/02/23 06:29:56;;;;;;;10.68;8.25;;;;;;;;;;4997619;28;20038;-95
2024/02/23 06:32:23;;;;;;;13.82;9.07;;;;;;;;;;4996741;28;20050;-91
2024/02/23 06:34:49;;;;;;;10.43;8.23;;;;;;;;;;4994674;28;20033;-92
2024/02/23 06:37:36;;;;;;;12.07;9.88;;;;;;;;;;4994295;28;20406;-93
2024/02/23 06:40:04;;;;;;;12.38;9.45;;;;;;;;;;4993451;28;20035;-93
2024/02/23 06:45:33;;;;;;;13.20;9.52;;;;;;;;;;4996636;28;20032;-93
2024/02/23 06:48:00;;;;;;;11.27;7.95;;;;;;;;;;4993805;28;20054;-94
2024/02/23 06:50:26;;;;;;;11.40;8.45;;;;;;;;;;4995016;28;20581;-94
2024/02/23 06:52:55;;;;;;;14.45;8.85;;;;;;;;;;4994850;28;20391;-94
2024/02/23 06:55:27;;;;;;;10.13;7.57;;;;;;;;;;5006262;28;20037;-93
2024/02/23 06:57:53;;;;;;;16.73;11.88;;;;;;;;;;4996495;28;20026;-92
2024/02/23 07:00:25;;;;;;;13.65;10.00;;;;;;;;;;4994082;28;20050;-93
2024/02/23 07:02:51;;;;;;;13.23;8.77;;;;;;;;;;4996217;28;20034;-93
2024/02/23 07:05:21;;;;;;;11.68;8.90;;;;;;;;;;4982651;28;20529;-93
2024/02/23 07:07:48;;;;;;;14.85;10.80;;;;;;;;;;4982110;28;20038;-93
2024/02/23 07:10:14;;;;;;;11.25;7.57;;;;;;;;;;4997942;28;20097;-95
2024/02/23 07:12:40;;;;;;;9.50;7.13;;;;;;;;;;5006978;28;20034;-90
2024/02/23 07:15:06;;;;;;;11.52;7.82;;;;;;;;;;5012062;28;20031;-92
2024/02/23 07:17:42;;;;;;;9.70;7.72;;;;;;;;;;4996778;28;20022;-93
2024/02/23 07:20:11;;;;;;;8.98;6.70;;;;;;;;;;4996440;28;20039;-91
2024/02/23 07:22:56;;;;;;;8.45;5.82;;;;;;;;;;4996908;28;20117;-91
2024/02/23 07:28:28;;;;;;;7.47;5.65;;;;;;;;;;4999217;28;20501;-90
2024/02/23 07:30:55;;;;;;;6.40;4.43;;;;;;;;;;4996804;28;20030;-90
2024/02/23 07:33:24;;;;;;;6.93;5.43;;;;;;;;;;4996729;28;20019;-92
2024/02/23 07:35:53;;;;;;;8.13;5.18;;;;;;;;;;4996741;28;20066;-90
2024/02/23 07:38:19;;;;;;;7.05;4.80;;;;;;;;;;4996735;28;20022;-91
2024/02/23 07:40:45;;;;;;;7.28;4.95;;;;;;;;;;4996954;28;20085;-92
2024/02/23 07:43:11;;;;;;;5.47;4.28;;;;;;;;;;4996363;28;20113;-90
2024/02/23 07:45:38;;;;;;;5.55;4.68;;;;;;;;;;4996469;28;20038;-89
2024/02/23 07:48:04;;;;;;;6.55;4.38;;;;;;;;;;4996615;28;20103;-90
2024/02/23 07:50:33;;;;;;;7.20;4.22;;;;;;;;;;4996802;28;20121;-90
2024/02/23 07:53:00;;;;;;;5.18;3.28;;;;;;;;;;4996892;28;20022;-92
2024/02/23 07:58:29;;;;;;;5.30;3.50;;;;;;;;;;4997874;28;20037;-92
2024/02/23 08:00:58;;;;;;;5.70;3.83;;;;;;;;;;4996630;28;20293;-90
2024/02/23 08:03:26;;;;;;;6.53;4.10;;;;;;;;;;4996845;28;20029;-92
2024/02/23 08:05:52;;;;;;;4.50;3.38;;;;;;;;;;4997109;28;20424;-91
2024/02/23 08:08:18;;;;;;;5.60;3.47;;;;;;;;;;5002642;28;20031;-90
2024/02/23 08:10:44;;;;;;;7.20;3.83;;;;;;;;;;5003072;28;20034;-91
2024/02/23 08:13:10;;;;;;;4.82;3.30;;;;;;;;;;4997206;28;20026;-93
2024/02/23 08:15:40;;;;;;;7.05;3.70;;;;;;;;;;4998560;28;20031;-94
2024/02/23 08:18:06;;;;;;;5.75;3.88;;;;;;;;;;5001954;28;20061;-92
2024/02/23 08:20:33;;;;;;;6.60;3.75;;;;;;;;;;4996668;28;20048;-92
2024/02/23 08:22:59;;;;;;;5.60;3.60;;;;;;;;;;5003901;28;20074;-94
2024/02/23 08:25:29;;;;;;;6.22;3.67;;;;;;;;;;5019786;28;20033;-90
2024/02/23 08:27:56;;;;;;;4.82;3.58;;;;;;;;;;5008232;28;20030;-92
2024/02/23 08:30:22;;;;;;;5.18;3.30;;;;;;;;;;4997476;28;20058;-92
2024/02/23 08:32:48;;;;;;;6.15;4.10;;;;;;;;;;4996181;28;20033;-94
2024/02/23 08:35:15;;;;;;;5.63;3.40;;;;;;;;;;4996812;28;20034;-95
2024/02/23 08:37:44;;;;;;;5.53;3.42;;;;;;;;;;4996405;28;20026;-96
2024/02/23 08:40:10;;;;;;;4.15;3.28;;;;;;;;;;4996841;28;20076;-95
2024/02/23 08:42:37;;;;;;;4.43;2.92;;;;;;;;;;4995477;28;20474;-95
2024/02/23 08:45:04;;;;;;;6.35;3.35;;;;;;;;;;4995662;28;20435;-93
2024/02/23 08:47:33;;;;;;;3.83;2.42;;;;;;;;;;4995653;28;20034;-90
2024/02/23 08:49:59;;;;;;;3.75;2.72;;;;;;;;;;5003111;28;20033;-91
2024/02/23 08:52:25;;;;;;;5.45;2.67;;;;;;;;;;5009798;28;20061;-90
2024/02/23 08:54:52;;;;;;;3.70;2.40;;;;;;;;;;4997090;28;20030;-91
2024/02/23 08:57:19;;;;;;;4.40;2.88;;;;;;;;;;4996323;28;20141;-89
2024/02/23 08:59:47;;;;;;;4.75;2.72;;;;;;;;;;4996108;28;20038;-89
2024/02/23 09:02:13;;;;;;;5.53;3.15;;;;;;;;;;4995136;28;20122;-91
2024/02/23 09:04:39;;;;;;;7.53;3.03;;;;;;;;;;4994975;28;20029;-91
2024/02/23 09:07:05;;;;;;;4.55;3.08;;;;;;;;;;4994888;28;20054;-89
2024/02/23 09:09:32;;;;;;;3.88;2.72;;;;;;;;;;4994964;28;20022;-91
2024/02/23 09:11:58;;;;;;;6.13;2.55;;;;;;;;;;4994757;28;20219;-90
2024/02/23 09:14:25;;;;;;;3.78;2.67;;;;;;;;;;4994779;28;20056;-90
2024/02/23 09:16:52;;;;;;;3.78;1.77;;;;;;;;;;4994922;28;20038;-89
2024/02/23 09:19:18;;;;;;;2.47;1.73;;;;;;;;;;4994669;28;20054;-89
2024/02/23 09:21:48;;;;;;;3.20;1.90;;;;;;;;;;4994915;28;20506;-92
2024/02/23 09:24:23;;;;;;;2.28;1.42;;;;;;;;;;4994457;28;20467;-89
2024/02/23 09:26:49;;;;;;;2.67;1.65;;;;;;;;;;4995190;28;20057;-90
2024/02/23 09:29:15;;;;;;;3.80;2.42;;;;;;;;;;4994817;28;20026;-91
2024/02/23 09:31:44;;;;;;;3.58;2.10;;;;;;;;;;4994545;28;20081;-92
2024/02/23 09:34:14;;;;;;;3.65;2.08;;;;;;;;;;4995308;28;20027;-92
2024/02/23 09:36:43;;;;;;;3.53;2.30;;;;;;;;;;4994494;28;20057;-93
2024/02/23 09:39:09;;;;;;;3.10;2.55;;;;;;;;;;4997517;28;20027;-91
2024/02/23 09:41:51;;;;;;;4.10;2.65;;;;;;;;;;4999100;28;20559;-93
2024/02/23 09:44:39;;;;;;;4.18;2.30;;;;;;;;;;4994329;28;20113;-92
2024/02/23 09:47:12;;;;;;;4.60;2.67;;;;;;;;;;4994855;28;20034;-92
2024/02/23 09:49:41;;;;;;;3.72;2.42;;;;;;;;;;4995045;28;20138;-92
2024/02/23 09:52:09;;;;;;;5.60;2.55;;;;;;;;;;4994883;28;20037;-92
2024/02/23 09:54:39;;;;;;;3.55;2.28;;;;;;;;;;4994379;28;20026;-90
2024/02/23 09:57:09;;;;;;;3.47;2.42;;;;;;;;;;4994351;28;20026;-91
2024/02/23 09:59:41;;;;;;;3.67;2.70;;;;;;;;;;4993708;28;20074;-91
2024/02/23 10:02:34;;;;;;;6.77;2.40;;;;;;;;;;4994188;28;20054;-93
2024/02/23 10:05:10;;;;;;;4.65;2.90;;;;;;;;;;4993670;28;20041;-93
2024/02/23 10:11:13;;;;;;;4.47;3.17;;;;;;;;;;4995504;28;20061;-94
2024/02/23 10:13:43;;;;;;;6.45;2.30;;;;;;;;;;4994402;28;20026;-93
2024/02/23 10:16:31;;;;;;;4.30;2.78;;;;;;;;;;4994264;28;20065;-91
2024/02/23 10:19:06;;;;;;;7.10;2.70;;;;;;;;;;5000379;28;20026;-90
2024/02/23 10:21:33;;;;;;;4.57;2.50;;;;;;;;;;5016814;28;20049;-90
2024/02/23 10:23:59;;;;;;;4.22;2.47;;;;;;;;;;5007697;28;20133;-92
2024/02/23 10:26:32;;;;;;;4.28;3.00;;;;;;;;;;5004189;28;20033;-92
2024/02/23 10:29:08;;;;;;;3.97;2.30;;;;;;;;;;5005023;28;20041;-91
2024/02/23 10:31:39;;;;;;;3.70;2.20;;;;;;;;;;4997258;28;20459;-92
2024/02/23 10:34:18;;;;;;;2.83;2.10;;;;;;;;;;5002451;28;20041;-91
2024/02/23 10:36:50;;;;;;;2.75;2.25;;;;;;;;;;4996005;28;20467;-91
2024/02/23 10:39:20;;;;;;;2.47;1.90;;;;;;;;;;4998873;28;20026;-92
2024/02/23 10:42:03;;;;;;;3.22;2.63;;;;;;;;;;4997974;28;20034;-91
2024/02/23 10:44:30;;;;;;;3.42;2.63;;;;;;;;;;4996860;28;20041;-91
2024/02/23 10:46:59;;;;;;;2.72;1.88;;;;;;;;;;4998759;28;20033;-90
2024/02/23 10:49:29;;;;;;;3.13;2.83;;;;;;;;;;4997382;28;20522;-92
2024/02/23 10:51:56;;;;;;;3.55;3.25;;;;;;;;;;4998153;28;20057;-91
2024/02/23 10:54:22;;;;;;;3.65;2.97;;;;;;;;;;4997644;28;20025;-92
2024/02/23 10:56:49;;;;;;;3.85;3.50;;;;;;;;;;4997510;28;20066;-91
2024/02/23 10:59:18;;;;;;;2.30;2.10;;;;;;;;;;4997057;28;20133;-91
2024/02/23 11:01:49;;;;;;;1.85;1.60;;;;;;;;;;4997552;28;20046;-93
2024/02/23 11:04:18;;;;;;;2.97;2.10;;;;;;;;;;4997739;28;20025;-92
2024/02/23 11:06:50;;;;;;;2.00;1.80;;;;;;;;;;4996777;28;20045;-91
2024/02/23 11:09:16;;;;;;;2.13;1.92;;;;;;;;;;4997854;28;20053;-92
2024/02/23 11:11:55;;;;;;;2.40;2.13;;;;;;;;;;4997811;28;20130;-91
2024/02/23 11:17:23;;;;;;;3.03;1.70;;;;;;;;;;4959049;28;20093;-90
2024/02/23 11:19:59;;;;;;;2.45;2.05;;;;;;;;;;4977435;28;20030;-91
2024/02/23 11:22:26;;;;;;;3.03;2.70;;;;;;;;;;4977567;28;20034;-91
2024/02/23 11:25:00;;;;;;;2.45;2.20;;;;;;;;;;4977872;28;20027;-93
2024/02/23 11:27:30;;;;;;;2.33;1.63;;;;;;;;;;4977122;28;20479;-92
2024/02/23 11:30:07;;;;;;;2.38;1.80;;;;;;;;;;4977992;28;20022;-92
2024/02/23 11:32:54;;;;;;;3.67;3.38;;;;;;;;;;4984766;28;20037;-91
2024/02/23 11:35:21;;;;;;;2.13;1.92;;;;;;;;;;4997983;28;20026;-92
2024/02/23 11:38:00;;;;;;;2.38;1.60;;;;;;;;;;5006728;28;20023;-90
2024/02/23 11:40:33;;;;;;;2.58;2.38;;;;;;;;;;5013560;28;20042;-91
2024/02/23 11:43:02;;;;;;;2.22;1.42;;;;;;;;;;4998615;28;20049;-92
2024/02/23 11:45:29;;;;;;;1.85;1.75;;;;;;;;;;4997452;28;20034;-92
2024/02/23 11:47:55;;;;;;;1.73;1.63;;;;;;;;;;4997430;28;20046;-92
2024/02/23 11:50:21;;;;;;;1.38;1.27;;;;;;;;;;5020163;28;20034;-91
2024/02/23 11:52:47;;;;;;;2.85;2.65;;;;;;;;;;5003790;28;20054;-91
2024/02/23 11:55:22;;;;;;;1.40;1.30;;;;;;;;;;4996668;28;20091;-91
2024/02/23 11:57:51;;;;;;;1.70;1.45;;;;;;;;;;4996272;28;20110;-91
2024/02/23 12:00:17;;;;;;;1.60;1.42;;;;;;;;;;4996316;28;20081;-91
2024/02/23 12:02:48;;;;;;;1.75;1.35;;;;;;;;;;4995893;28;20042;-92
2024/02/23 12:05:14;;;;;;;2.47;1.48;;;;;;;;;;4996565;28;20108;-92
2024/02/23 12:07:41;;;;;;;2.08;1.70;;;;;;;;;;4996358;28;20018;-93
2024/02/23 12:10:11;;;;;;;2.55;1.55;;;;;;;;;;4994751;28;20483;-92
2024/02/23 12:12:37;;;;;;;1.50;1.10;;;;;;;;;;4995968;28;20172;-92
2024/02/23 12:17:33;;;;;;;2.63;1.10;;;;;;;;;;4964683;29;20035;-93
2024/02/23 12:20:03;;;;;;;3.47;1.30;;;;;;;;;;4978618;28;20098;-89
2024/02/23 12:22:30;;;;;;;1.98;1.67;;;;;;;;;;4957300;29;20038;-91
2024/02/23 12:24:59;;;;;;;2.67;1.58;;;;;;;;;;4957630;29;20039;-92
2024/02/23 12:27:25;;;;;;;2.60;2.03;;;;;;;;;;4967329;29;20046;-93
2024/02/23 12:29:59;;;;;;;2.72;1.77;;;;;;;;;;4957018;29;20081;-91
2024/02/23 12:32:31;;;;;;;;;;;;;;;;;;4957240;29;20567;-92
2024/02/23 12:35:00;;;;;;;1.30;1.00;;;;;;;;;;4953922;28;19957;-89
2024/02/23 12:37:53;;;;;;;2.63;1.83;;;;;;;;;;4952685;29;20396;-96
2024/02/23 12:40:22;;;;;;;2.83;1.45;;;;;;;;;;4934701;29;20141;-92
2024/02/23 12:42:48;;;;;;;2.35;2.15;;;;;;;;;;4959464;29;20035;-94
2024/02/23 12:45:14;;;;;;;1.92;1.10;;;;;;;;;;4954255;29;20484;-93
2024/02/23 12:47:44;;;;;;;3.63;2.20;;;;;;;;;;4953773;29;20030;-91
2024/02/23 12:50:32;;;;;;;4.40;2.70;;;;;;;;;;4955128;29;20024;-90
2024/02/23 12:53:00;;;;;;;6.82;3.70;;;;;;;;;;4957699;29;20035;-91
2024/02/23 12:55:41;;;;;;;2.92;2.08;;;;;;;;;;4970660;28;20476;-93
2024/02/23 12:58:07;;;;;;;3.45;2.47;;;;;;;;;;4959498;29;20035;-90
2024/02/23 13:00:36;;;;;;;2.63;1.75;;;;;;;;;;4961968;28;20111;-95
2024/02/23 13:03:02;;;;;;;7.22;2.53;;;;;;;;;;4973518;28;20019;-94
2024/02/23 13:05:29;;;;;;;2.20;1.40;;;;;;;;;;4958441;28;20063;-91
2024/02/23 13:17:06;;;;;;;3.33;1.73;;;;;;;;;;4941659;28;20357;-94
2024/02/23 13:19:35;;;;;;;3.03;1.95;;;;;;;;;;5059999;23;21231;-91
2024/02/23 13:22:16;;;;;;;4.30;2.22;;;;;;;;;;4999930;28;20030;-94
2024/02/23 13:24:45;;;;;;;6.82;3.47;;;;;;;;;;4995172;28;20022;-92
2024/02/23 13:27:11;;;;;;;3.88;2.30;;;;;;;;;;4999602;28;20022;-92
2024/02/23 13:29:38;;;;;;;4.07;2.83;;;;;;;;;;5014873;28;20064;-90
2024/02/23 13:32:11;;;;;;;4.30;2.88;;;;;;;;;;5015293;28;20029;-92
2024/02/23 13:34:39;;;;;;;4.07;3.25;;;;;;;;;;5016474;28;20036;-91
2024/02/23 13:37:05;;;;;;;4.07;2.70;;;;;;;;;;5014255;28;20033;-91
2024/02/23 13:39:32;;;;;;;3.88;2.67;;;;;;;;;;5016383;28;20076;-90
2024/02/23 13:42:01;;;;;;;5.60;3.58;;;;;;;;;;4997101;28;20027;-89
2024/02/23 13:44:27;;;;;;;6.03;4.15;;;;;;;;;;4994978;28;20030;-90
2024/02/23 13:46:54;;;;;;;4.30;3.17;;;;;;;;;;4999406;28;20054;-89
2024/02/23 13:49:20;;;;;;;5.13;3.53;;;;;;;;;;4995106;28;20053;-90
2024/02/23 13:51:55;;;;;;;5.40;3.35;;;;;;;;;;4994522;28;20026;-91
2024/02/23 13:54:21;;;;;;;4.50;3.00;;;;;;;;;;4994284;28;20108;-92
2024/02/23 13:56:47;;;;;;;4.75;3.05;;;;;;;;;;4994212;28;20041;-91
2024/02/23 13:59:13;;;;;;;4.07;2.58;;;;;;;;;;4994825;28;20061;-90
2024/02/23 14:01:40;;;;;;;3.17;2.40;;;;;;;;;;4998747;28;20533;-91
2024/02/23 14:04:08;;;;;;;3.85;2.47;;;;;;;;;;4999170;28;20455;-93
2024/02/23 14:06:34;;;;;;;3.90;3.03;;;;;;;;;;4997391;28;20050;-91
2024/02/23 14:09:06;;;;;;;4.47;3.13;;;;;;;;;;4994487;28;20053;-93
2024/02/23 14:11:32;;;;;;;5.07;3.22;;;;;;;;;;4995897;28;20510;-95
2024/02/23 14:14:14;;;;;;;4.57;2.88;;;;;;;;;;4995343;28;20026;-95
2024/02/23 14:16:47;;;;;;;4.15;2.85;;;;;;;;;;4994880;28;20056;-91
2024/02/23 14:19:20;;;;;;;4.15;3.30;;;;;;;;;;4996874;28;20023;-93
2024/02/23 14:22:06;;;;;;;4.60;3.30;;;;;;;;;;4999022;28;20056;-89
2024/02/23 14:24:32;;;;;;;4.53;3.17;;;;;;;;;;5014071;28;20034;-90
2024/02/23 14:26:58;;;;;;;4.95;3.40;;;;;;;;;;5013840;28;20475;-90
2024/02/23 14:29:25;;;;;;;5.70;3.88;;;;;;;;;;5014511;28;20026;-91
2024/02/23 14:31:51;;;;;;;6.40;3.78;;;;;;;;;;5013641;28;20026;-89
2024/02/23 14:34:17;;;;;;;4.28;3.65;;;;;;;;;;5013987;28;20034;-90
2024/02/23 14:36:43;;;;;;;5.45;3.55;;;;;;;;;;5013726;28;20025;-89
2024/02/23 14:39:16;;;;;;;6.38;3.60;;;;;;;;;;5020719;28;20049;-92
2024/02/23 14:42:08;;;;;;;6.38;4.43;;;;;;;;;;5000630;28;20039;-94
2024/02/23 14:44:39;;;;;;;4.97;3.60;;;;;;;;;;4996173;28;20023;-93
2024/02/23 14:47:08;;;;;;;5.30;3.42;;;;;;;;;;5016693;28;20088;-90
2024/02/23 14:49:34;;;;;;;5.47;3.97;;;;;;;;;;5030581;28;20034;-90
2024/02/23 14:52:04;;;;;;;5.63;3.17;;;;;;;;;;5031237;28;20034;-89
2024/02/23 14:54:30;;;;;;;6.32;3.20;;;;;;;;;;4977680;28;20042;-90
2024/02/23 14:56:58;;;;;;;5.25;3.17;;;;;;;;;;4988254;28;20466;-90
2024/02/23 14:59:35;;;;;;;5.03;3.40;;;;;;;;;;5003325;28;20037;-90
2024/02/23 15:02:02;;;;;;;4.60;2.97;;;;;;;;;;5010273;28;20042;-89
2024/02/23 15:04:28;;;;;;;5.72;3.40;;;;;;;;;;5013462;28;20391;-89
2024/02/23 15:06:55;;;;;;;5.50;3.45;;;;;;;;;;5013368;28;20026;-90
2024/02/23 15:09:21;;;;;;;8.10;4.18;;;;;;;;;;5013138;28;20021;-90
2024/02/23 15:11:47;;;;;;;5.82;4.25;;;;;;;;;;4994601;28;20045;-90
2024/02/23 15:14:19;;;;;;;7.82;4.30;;;;;;;;;;4998657;28;20026;-91